Portada
METAR-TAF:

METAR-TAF

Aeroports :

Vínnitsia, Ucraïna

latitud: 49-14-23N, longitud: 028-36-50E, altitud: 974 m

Observació

L'informe es va fer fa 22 minuts, a les 13:00 UTC
Vent 2 kt amb direcció variable
Temperatura 27°C
Humitat 45%
Pressió 1018 hPa
Visibilitat 10 km o més

METAR: UKWW 211300Z VRB01MPS 9999 NSC 27/14 Q1018 R31/0///65 NOSIG

Hora: 16:22 (13:22 UTC)

Pronòstic

L'informe es va fer fa 2 hores i 12 minuts, a les 11:10 UTC
Pronòstic vàlid del 21 a les 12 UTC al 21 a les 21 UTC
Vent 6 kt del Sud-Oest
Visibilitat 10 km o més
Cel ennuvolat a una alçada de 4000 ft
Probabilitat 40% :
Temporalment
l' 21 a les 12 UTC al 21 a les 15 UTC
Vent 14 kt amb direcció variable amb ràfegues de 23 kt
Visibilitat: 2100 m
Núvols disperses a una alçada de 500 ft
Cel ennuvolat a una alçada de 1500 ft, Cumulonimbus.
tempesta, pluja

TAF: UKWW 211110Z 2112/2121 22003MPS 9999 BKN040 TX28/2113Z TN20/2121Z PROB40 TEMPO 2112/2115 VRB07G12MPS 2100 -TSRA SCT005 BKN015CB

Observacions i pronòstics meteorològics de més de 4000 aeroports (METAR i TAF).

Les estacions disponibles són els punts grocs i vermells al mapa.

Posi el ratolí al punt desitjat per veure el nom de l'estació.

Feu clic per veure les observacions i els pronòstics meteorològics.

Per canviar el mapa: feu clic els botons verds amb una creu de color negre per apropar; al botó verd amb un guió per allunyar la imatge; o en les fletxes verdes per a mapes adjacents.


METAR-TAF: